Tyro, Kansas
Current Conditions -  °F | °C
As of 6:15 PM on Friday 21 Nov 2014 (Local Time) from KIDP Reporting Station
Overcast Overcast  
Wind Chill: 54°   Ceiling: 3200
Heat Index: 54°   Visibility: 10mi
Dew Point: 50°   Wind: 12mph
Humidity: 88%   Direction: 160°SSE
Pressure: 30.06"   Gusts: 17mph
Location:  37.04°N, 95.82°W
Report Text: KIDP 220015Z AUTO 16010G15KT 10SM SCT015 BKN032 OVC048 12/10 A3006 RMK AO2
Loading
Personal Weather Stations






























Interactive Weather Map New forecast layout! Learn more

10-Day Weather Forecast

Advertisements
Track Severe Weather on mobile